ADDS METAR Data INFO
IDs: Format: Raw Decoded Include TAF

Data at: 0752 UTC 23 Apr 2018

KDTO 230653Z AUTO 31005KT 10SM CLR 10/08 A3006 RMK AO2 SLP174 T01000083
KDTO 230553Z AUTO 31007KT 10SM CLR 11/08 A3004 RMK AO2 SLP168 T01110083 10178 20106 401940089 58001
KDTO 230453Z AUTO 29006KT 10SM CLR 11/08 A3004 RMK AO2 SLP168 T01110083
KDTO 230353Z AUTO 30005KT 10SM CLR 12/09 A3005 RMK AO2 SLP171 T01220089
KDTO 230253Z 28005KT 10SM SCT060 14/09 A3004 RMK AO2 SLP169 T01390089 53005
KDTO 230153Z 27004KT 10SM OVC060 16/09 A3003 RMK AO2 SLP166 T01560089
KDTO 230053Z 32007KT 10SM OVC060 17/08 A3003 RMK AO2 SLP164 T01720083
KDTO 222353Z 31011KT 10SM OVC060 18/08 A3002 RMK AO2 SLP163 T01780078 10194 20161 56004
KDTO 222253Z 32014KT 10SM SCT049 18/08 A3002 RMK AO2 SLP163 T01830078
KDTO 222153Z 31011G21KT 10SM BKN050 18/08 A3002 RMK AO2 SLP162 T01830078
KDTO 222053Z 33015G23KT 10SM OVC050 18/08 A3004 RMK AO2 SLP167 T01780078 56019
KDTO 221953Z 31017G21KT 10SM BKN047 18/08 A3005 RMK AO2 SLP174 T01780078
KDTO 221853Z 32014G22KT 10SM BKN042 17/08 A3007 RMK AO2 SLP180 T01720083
KDTO 221753Z 32013KT 10SM BKN039 16/08 A3009 RMK AO2 SLP186 T01610078 10161 20089 58005
KDTO 221653Z 34014G22KT 10SM BKN035 15/08 A3011 RMK AO2 SLP194 T01500078
KDTO 221553Z 34013G21KT 10SM SCT029 14/08 A3011 RMK AO2 SLP194 T01390078
KDTO 221453Z 35016G21KT 10SM FEW024 12/07 A3011 RMK AO2 SLP192 T01220067 51004
KDTO 221353Z 34017G20KT 10SM CLR 11/07 A3011 RMK AO2 SLP192 T01110067
KDTO 221253Z 30009KT 10SM CLR 10/08 A3011 RMK AO2 SLP192 T01000078
KDTO 221153Z 32012KT 10SM CLR 09/07 A3009 RMK AO2 SLP188 70043 T00940072 10111 20094 53010
KDTO 221131Z 33011KT 10SM SCT023 10/07 A3008 RMK AO2 T01000072
KDTO 221053Z 33012KT 10SM OVC019 11/08 A3008 RMK AO2 SLP183 T01060083
KDTO 220953Z AUTO 33013KT 10SM FEW017 OVC025 11/09 A3006 RMK AO2 SLP175 T01060089
KDTO 220853Z AUTO 33009KT 10SM SCT017 OVC023 11/09 A3006 RMK AO2 SLP176 T01110089 53002
KDTO 220753Z AUTO 34011KT 10SM OVC017 11/09 A3005 RMK AO2 SLP174 T01110089
KDTO 220653Z AUTO 34012KT 10SM OVC015 11/09 A3005 RMK AO2 SLP173 T01110089
KDTO 220553Z AUTO 34012KT 10SM OVC013 11/09 A3006 RMK AO2 SLP175 60000 T01110094 10139 20111 401610111 50008
KDTO 220453Z AUTO 34011KT 10SM BKN014 11/10 A3006 RMK AO2 SLP177 T01110100
KDTO 220353Z AUTO 33013G20KT 10SM OVC013 12/11 A3006 RMK AO2 SLP176 T01220111
KDTO 220314Z AUTO 33010KT 10SM BKN013 BKN018 OVC024 12/11 A3005 RMK AO2 T01170111
KDTO 220253Z 33011KT 10SM FEW009 BKN023 OVC031 12/11 A3003 RMK AO2 RAB24E33 SLP166 P0000 60000 T01170111 53028
KDTO 220227Z 01011KT 10SM -RA SCT007 BKN021 OVC031 12/11 A3001 RMK AO2 RAB24 P0000 T01170111
KDTO 220153Z 34016G23KT 10SM OVC005 12/12 A3001 RMK AO2 SLP157 T01170117
KDTO 220144Z 34013KT 10SM OVC005 12/12 A3001 RMK AO2 T01170117
KDTO 220113Z 34015KT 5SM BR OVC004 12/12 A2998 RMK AO2 T01220122
KDTO 220053Z 36013KT 5SM BR OVC006 13/13 A2995 RMK AO2 RAE04 CIG 004V009 SLP139 P0000 T01330128
KDTO 220015Z 02013KT 10SM SCT004 OVC008 14/13 A2995 RMK AO2 LTG DSNT S RAE04 P0000 T01390133
KDTO 220002Z 01011KT 3SM -RA BR BKN003 OVC008 13/13 A2995 RMK AO2 LTG DSNT S CIG 002V006 P0000 T01330133
KDTO 212353Z 36013KT 1 1/2SM -RA BR OVC003 14/14 A2995 RMK AO2 LTG DSNT S RAB22 CIG 002V006 SLP137 P0002 60007 T01390139 10161 20139 53013
KDTO 212318Z 02006KT 1 3/4SM BR OVC003 14/14 A2995 RMK AO2 LTG DSNT S AND SW PRESRR T01440144
KDTO 212253Z 03012KT 2 1/2SM BR OVC003 14/14 A2992 RMK AO2 LTG DSNT S AND SW SLP127 T01440144
KDTO 212239Z 01010KT 3SM BR OVC003 14/14 A2994 RMK AO2 LTG DSNT SW T01440144
KDTO 212153Z 04004KT 5SM BR OVC006 16/16 A2992 RMK AO2 SLP128 T01610156
KDTO 212053Z 08005KT 4SM BR OVC006 16/15 A2991 RMK AO2 CIG 004V007 SLP124 60005 T01560150 58019
KDTO 211953Z 01005KT 5SM BR OVC005 14/14 A2995 RMK AO2 RAE1854 SLP137 P0000 T01390139